Time;durP1;ratioP1;P1;durP2;ratioP2;P2;SDS_P1;SDS_P2;PMS_P1;PMS_P2;Temp;Humidity;BMP_temperature;BMP_pressure;BME280_temperature;BME280_humidity;BME280_pressure;Samples;Min_cycle;Max_cycle;Signal;HPM_P1;HPM_P2
2022/12/01 00:00:52;;;;;;;30.80;19.17;;;4.30;99.90;;;;;;5027534;28;21002;-66
2022/12/01 00:03:18;;;;;;;29.63;16.17;;;4.30;1.00;;;;;;5028094;28;20403;-66
2022/12/01 00:05:44;;;;;;;23.47;15.70;;;4.20;99.90;;;;;;5028365;28;20476;-65
2022/12/01 00:08:09;;;;;;;27.00;16.00;;;4.00;99.90;;;;;;5028040;28;20241;-65
2022/12/01 00:10:35;;;;;;;20.90;14.80;;;4.10;56.60;;;;;;5027036;28;20172;-66
2022/12/01 00:13:03;;;;;;;25.23;16.40;;;4.30;99.90;;;;;;5027838;28;20243;-65
2022/12/01 00:15:33;;;;;;;27.70;17.70;;;4.20;1.00;;;;;;5028002;28;20183;-66
2022/12/01 00:17:59;;;;;;;28.33;18.43;;;4.20;1.00;;;;;;5028348;28;20954;-66
2022/12/01 00:20:25;;;;;;;23.97;14.73;;;4.30;1.00;;;;;;5029041;28;20406;-66
2022/12/01 00:22:50;;;;;;;27.70;16.97;;;4.40;99.90;;;;;;5030587;28;20858;-66
2022/12/01 00:25:17;;;;;;;27.27;15.77;;;4.40;1.00;;;;;;5029436;28;20207;-65
2022/12/01 00:27:48;;;;;;;23.77;16.53;;;4.30;1.00;;;;;;5030139;28;20191;-66
2022/12/01 00:30:13;;;;;;;27.03;17.33;;;4.30;1.00;;;;;;5030179;28;20982;-66
2022/12/01 00:32:39;;;;;;;20.90;14.90;;;4.40;90.00;;;;;;5030561;28;20541;-66
2022/12/01 00:35:05;;;;;;;24.87;15.97;;;4.30;99.90;;;;;;5030586;28;20476;-65
2022/12/01 00:37:32;;;;;;;36.83;19.00;;;4.30;99.90;;;;;;5030848;28;20196;-65
2022/12/01 00:39:58;;;;;;;28.07;17.07;;;4.40;99.90;;;;;;5030137;28;20449;-66
2022/12/01 00:42:25;;;;;;;22.83;16.07;;;4.50;1.00;;;;;;5029669;28;20417;-66
2022/12/01 00:44:50;;;;;;;27.57;17.63;;;4.40;1.00;;;;;;5030259;28;20796;-66
2022/12/01 00:47:16;;;;;;;22.83;14.40;;;4.50;1.00;;;;;;5030680;28;20458;-66
2022/12/01 00:49:44;;;;;;;25.43;15.97;;;4.50;1.00;;;;;;5029874;28;20180;-65
2022/12/01 00:52:13;;;;;;;27.87;17.27;;;4.60;1.00;;;;;;5029546;28;20238;-66
2022/12/01 00:54:39;;;;;;;23.37;14.80;;;4.70;1.00;;;;;;5029999;28;20414;-66
2022/12/01 00:57:06;;;;;;;24.60;15.17;;;4.70;99.90;;;;;;5030401;28;20422;-65
2022/12/01 00:59:32;;;;;;;25.30;15.33;;;4.70;99.90;;;;;;5030491;28;20969;-65
2022/12/01 01:01:58;;;;;;;24.80;15.10;;;4.40;1.00;;;;;;5029528;28;20426;-65
2022/12/01 01:04:23;;;;;;;22.40;15.37;;;4.30;12.20;;;;;;5030246;28;20172;-65
2022/12/01 01:06:49;;;;;;;24.87;15.73;;;4.40;1.00;;;;;;5030282;28;20262;-65
2022/12/01 01:09:16;;;;;;;27.13;14.37;;;4.40;29.60;;;;;;5029534;28;20233;-65
2022/12/01 01:11:42;;;;;;;22.67;15.00;;;4.60;1.00;;;;;;5028906;28;20457;-65
2022/12/01 01:14:08;;;;;;;25.20;15.80;;;4.60;1.00;;;;;;5030063;28;20402;-65
2022/12/01 01:16:35;;;;;;;27.10;15.60;;;4.80;1.00;;;;;;5030132;28;20454;-65
2022/12/01 01:19:00;;;;;;;25.83;16.40;;;4.80;99.90;;;;;;5029935;28;20489;-64
2022/12/01 01:21:26;;;;;;;25.57;16.70;;;4.70;99.90;;;;;;5029197;28;20422;-64
2022/12/01 01:23:53;;;;;;;24.03;14.60;;;4.70;99.90;;;;;;5029453;28;20172;-64
2022/12/01 01:26:27;;;;;;;26.87;15.00;;;4.60;1.00;;;;;;5030065;28;20422;-65
2022/12/01 01:28:55;;;;;;;29.40;15.00;;;4.60;1.00;;;;;;5029705;28;20437;-64
2022/12/01 01:31:23;;;;;;;25.20;15.70;;;4.60;1.00;;;;;;5028730;28;20490;-64
2022/12/01 01:33:50;;;;;;;27.40;15.30;;;4.70;1.00;;;;;;5028027;28;20498;-64
2022/12/01 01:36:17;;;;;;;27.50;14.90;;;4.60;99.90;;;;;;5029913;28;20403;-64
2022/12/01 01:38:43;;;;;;;22.87;15.30;;;4.30;99.90;;;;;;5029225;28;20429;-64
2022/12/01 01:41:10;;;;;;;27.50;15.27;;;4.40;1.00;;;;;;5028923;28;20756;-64
2022/12/01 01:44:00;;;;;;;25.53;16.10;;;4.20;99.90;;;;;;5029765;28;20416;-64
2022/12/01 01:46:31;;;;;;;24.10;15.17;;;4.20;99.90;;;;;;5029351;28;20869;-63
2022/12/01 01:49:04;;;;;;;23.73;15.50;;;4.40;99.90;;;;;;5029943;28;20464;-63
2022/12/01 01:51:39;;;;;;;27.13;15.30;;;4.70;1.00;;;;;;5028856;28;20454;-63
2022/12/01 01:54:14;;;;;;;26.57;16.10;;;4.60;1.00;;;;;;5029323;28;20412;-62
2022/12/01 01:56:42;;;;;;;28.70;16.70;;;4.50;1.00;;;;;;5029396;28;20436;-63
2022/12/01 01:59:08;;;;;;;27.37;15.47;;;4.50;1.00;;;;;;5029435;28;20407;-62
2022/12/01 02:01:34;;;;;;;26.23;16.70;;;4.60;1.00;;;;;;5028262;28;20433;-64
2022/12/01 02:04:01;;;;;;;27.37;16.50;;;4.70;1.00;;;;;;5029757;28;20402;-64
2022/12/01 02:06:27;;;;;;;27.77;18.37;;;4.60;1.00;;;;;;5030615;28;20262;-64
2022/12/01 02:08:53;;;;;;;23.90;15.67;;;4.50;1.00;;;;;;5029295;28;20967;-64
2022/12/01 02:11:28;;;;;;;26.80;16.13;;;4.60;99.90;;;;;;5029125;28;20238;-64
2022/12/01 02:14:12;;;;;;;25.70;16.17;;;4.50;1.00;;;;;;5030061;28;20539;-64
2022/12/01 02:17:03;;;;;;;26.80;16.87;;;4.50;1.00;;;;;;5030039;28;20492;-64
2022/12/01 02:20:06;;;;;;;26.23;15.10;;;4.50;1.00;;;;;;5029157;28;20521;-64
2022/12/01 02:23:06;;;;;;;23.80;16.67;;;4.50;1.00;;;;;;5028481;28;20417;-64
2022/12/01 02:25:53;;;;;;;24.90;15.90;;;4.50;1.00;;;;;;5025018;28;21058;-65
2022/12/01 02:29:04;;;;;;;28.30;16.63;;;4.50;1.00;;;;;;5029022;28;20430;-64
2022/12/01 02:31:49;;;;;;;26.60;14.87;;;4.60;1.00;;;;;;5019743;28;20458;-64
2022/12/01 02:34:26;;;;;;;24.80;16.30;;;4.60;1.00;;;;;;5029075;28;20603;-64
2022/12/01 02:37:07;;;;;;;25.50;16.10;;;4.30;1.00;;;;;;5029146;28;20426;-64
2022/12/01 02:39:45;;;;;;;29.10;15.60;;;4.40;1.00;;;;;;5028603;28;20399;-63
2022/12/01 02:45:13;;;;;;;25.77;16.80;;;4.50;1.00;;;;;;5028943;28;20456;-64
2022/12/01 02:47:40;;;;;;;29.07;16.67;;;4.50;1.00;;;;;;5029083;28;20531;-64
2022/12/01 02:50:09;;;;;;;22.67;15.60;;;4.50;1.00;;;;;;5028857;28;20410;-64
2022/12/01 02:52:35;;;;;;;29.37;16.63;;;4.50;1.00;;;;;;5028523;28;20466;-64
2022/12/01 02:55:01;;;;;;;32.23;17.40;;;4.60;1.00;;;;;;5028283;28;20417;-64
2022/12/01 02:57:28;;;;;;;26.83;16.80;;;4.60;99.90;;;;;;5028761;28;20805;-64
2022/12/01 02:59:55;;;;;;;25.47;16.97;;;4.50;1.00;;;;;;5028737;28;20199;-64
2022/12/01 03:02:58;;;;;;;25.20;15.90;;;4.30;1.00;;;;;;5028048;28;20423;-64
2022/12/01 03:05:42;;;;;;;32.50;17.53;;;4.20;39.90;;;;;;5029307;28;20791;-64
2022/12/01 03:08:29;;;;;;;27.40;16.47;;;4.10;99.90;;;;;;5028876;28;20935;-64
2022/12/01 03:10:57;;;;;;;26.53;16.17;;;4.30;99.90;;;;;;5029162;28;20484;-65
2022/12/01 03:13:53;;;;;;;24.53;16.03;;;3.90;99.90;;;;;;5030393;28;20403;-65
2022/12/01 03:16:31;;;;;;;28.57;17.73;;;3.80;1.00;;;;;;5032857;28;20505;-65
2022/12/01 03:19:08;;;;;;;27.90;18.00;;;3.70;1.00;;;;;;5032026;28;20516;-65
2022/12/01 03:21:40;;;;;;;29.37;16.73;;;3.90;1.00;;;;;;5030012;28;20426;-65
2022/12/01 03:24:18;;;;;;;32.00;18.07;;;4.00;1.00;;;;;;5030908;28;20410;-65
2022/12/01 03:26:54;;;;;;;26.00;16.90;;;4.20;99.90;;;;;;5030483;28;20557;-64
2022/12/01 03:29:25;;;;;;;33.53;18.57;;;4.30;99.90;;;;;;5031882;28;20424;-64
2022/12/01 03:31:57;;;;;;;28.30;16.83;;;4.40;1.00;;;;;;5031007;28;20525;-64
2022/12/01 03:34:26;;;;;;;26.87;17.27;;;4.50;1.00;;;;;;5031775;28;20533;-65
2022/12/01 03:36:57;;;;;;;28.97;17.80;;;4.30;1.00;;;;;;5031915;28;20548;-63
2022/12/01 03:39:32;;;;;;;29.80;17.70;;;4.40;1.00;;;;;;5031259;28;20755;-64
2022/12/01 03:42:21;;;;;;;26.93;17.03;;;4.40;1.00;;;;;;5031121;28;20409;-64
2022/12/01 03:44:50;;;;;;;34.77;18.80;;;4.30;25.90;;;;;;5031792;28;20406;-64
2022/12/01 03:47:20;;;;;;;25.67;15.80;;;4.20;1.00;;;;;;5031509;28;20446;-64
2022/12/01 03:49:48;;;;;;;29.10;18.53;;;4.30;7.40;;;;;;5031928;28;20420;-64
2022/12/01 03:52:39;;;;;;;30.70;17.10;;;4.30;1.00;;;;;;5030261;28;20939;-64
2022/12/01 03:55:07;;;;;;;24.80;16.70;;;4.40;1.00;;;;;;5031062;28;20403;-64
2022/12/01 03:58:03;;;;;;;32.43;17.70;;;4.30;99.90;;;;;;5031670;28;20419;-64
2022/12/01 04:00:32;;;;;;;29.57;15.90;;;4.30;1.00;;;;;;5030978;28;20414;-64
2022/12/01 04:03:01;;;;;;;27.13;15.87;;;4.40;1.00;;;;;;5031539;28;20406;-64
2022/12/01 04:05:28;;;;;;;22.73;14.10;;;4.40;1.00;;;;;;5031655;28;20410;-65
2022/12/01 04:07:53;;;;;;;27.80;15.87;;;4.50;99.90;;;;;;5031236;28;20435;-65
2022/12/01 04:10:19;;;;;;;25.83;15.10;;;4.60;99.90;;;;;;5030903;28;20406;-64
2022/12/01 04:12:45;;;;;;;24.17;17.07;;;4.60;1.00;;;;;;5031253;28;20202;-64
2022/12/01 04:15:13;;;;;;;23.50;15.47;;;4.50;1.00;;;;;;5031507;28;20805;-64
2022/12/01 04:17:42;;;;;;;31.70;16.80;;;4.50;99.90;;;;;;5030778;28;20207;-64
2022/12/01 04:20:09;;;;;;;22.30;15.57;;;4.50;99.90;;;;;;5030817;28;20414;-64
2022/12/01 04:22:35;;;;;;;23.07;15.73;;;4.30;99.90;;;;;;5030959;28;20489;-64
2022/12/01 04:25:02;;;;;;;23.73;14.80;;;4.30;1.00;;;;;;5029864;28;20486;-63
2022/12/01 04:27:27;;;;;;;26.00;14.90;;;4.40;1.00;;;;;;5031091;28;20430;-63
2022/12/01 04:29:53;;;;;;;21.53;14.70;;;4.30;1.00;;;;;;5030919;28;20418;-63
2022/12/01 04:32:19;;;;;;;25.03;14.90;;;4.30;1.00;;;;;;5029980;28;20200;-63
2022/12/01 04:34:44;;;;;;;24.43;15.00;;;4.50;1.00;;;;;;5030821;28;20164;-64
2022/12/01 04:37:11;;;;;;;23.50;15.70;;;4.50;99.90;;;;;;5031008;28;20198;-63
2022/12/01 04:39:37;;;;;;;21.33;13.83;;;4.60;99.90;;;;;;5030293;28;20175;-63
2022/12/01 04:42:03;;;;;;;25.90;15.90;;;4.30;1.00;;;;;;5029728;28;20406;-63
2022/12/01 04:44:29;;;;;;;26.33;14.47;;;4.40;1.00;;;;;;5030431;28;20505;-63
2022/12/01 04:46:55;;;;;;;22.80;15.53;;;4.30;1.00;;;;;;5030496;28;20886;-63
2022/12/01 04:49:21;;;;;;;21.77;14.70;;;4.20;48.30;;;;;;5030399;28;20445;-63
2022/12/01 04:51:47;;;;;;;20.23;13.63;;;4.30;63.80;;;;;;5029653;28;20569;-64
2022/12/01 04:54:14;;;;;;;21.83;14.30;;;4.20;1.00;;;;;;5029828;28;20484;-63
2022/12/01 04:56:40;;;;;;;24.97;13.97;;;4.40;1.00;;;;;;5030484;28;20430;-63
2022/12/01 04:59:06;;;;;;;28.67;14.70;;;4.40;1.00;;;;;;5030222;28;20444;-64
2022/12/01 05:01:32;;;;;;;25.20;15.40;;;4.50;1.00;;;;;;5029104;28;20934;-64
2022/12/01 05:03:58;;;;;;;23.17;14.00;;;4.50;1.00;;;;;;5029814;28;20438;-63
2022/12/01 05:06:26;;;;;;;25.57;14.60;;;4.50;1.00;;;;;;5030427;28;20671;-63
2022/12/01 05:08:57;;;;;;;21.97;13.73;;;4.50;1.00;;;;;;5029613;28;20175;-64
2022/12/01 05:11:24;;;;;;;23.40;15.20;;;4.60;1.00;;;;;;5027868;28;20519;-63
2022/12/01 05:13:50;;;;;;;34.10;15.20;;;4.40;1.00;;;;;;5029797;28;20901;-63
2022/12/01 05:16:31;;;;;;;26.73;15.43;;;4.40;99.90;;;;;;5030105;28;20403;-64
2022/12/01 05:21:44;;;;;;;24.70;15.27;;;4.60;1.00;;;;;;5029478;28;20460;-63
2022/12/01 05:24:10;;;;;;;28.80;17.33;;;4.60;1.00;;;;;;5029474;28;20429;-65
2022/12/01 05:26:36;;;;;;;26.03;15.10;;;4.50;1.00;;;;;;5030242;28;20532;-63
2022/12/01 05:29:02;;;;;;;25.93;15.33;;;4.40;99.90;;;;;;5030037;28;20426;-63
2022/12/01 05:31:28;;;;;;;25.47;15.10;;;4.30;15.60;;;;;;5028916;28;20735;-63
2022/12/01 05:33:54;;;;;;;28.27;15.60;;;4.30;99.90;;;;;;5029442;28;20493;-63
2022/12/01 05:36:20;;;;;;;25.23;15.87;;;4.40;99.90;;;;;;5029149;28;20258;-64
2022/12/01 05:38:45;;;;;;;30.30;16.93;;;4.30;99.90;;;;;;5029212;28;20163;-64
2022/12/01 05:41:11;;;;;;;29.13;16.70;;;4.20;99.90;;;;;;5029258;28;20977;-65
2022/12/01 05:43:37;;;;;;;28.23;15.90;;;4.00;99.90;;;;;;5030166;28;20172;-64
2022/12/01 05:46:03;;;;;;;28.50;17.20;;;4.00;1.00;;;;;;5029776;28;20191;-64
2022/12/01 05:48:28;;;;;;;28.93;16.87;;;4.10;1.00;;;;;;5029590;28;20196;-64
2022/12/01 05:50:54;;;;;;;25.00;16.20;;;4.00;1.00;;;;;;5022835;28;20454;-64
2022/12/01 05:53:20;;;;;;;35.00;17.37;;;4.00;1.00;;;;;;5024960;28;20310;-64
2022/12/01 05:55:49;;;;;;;30.23;17.67;;;4.20;1.00;;;;;;5026724;28;20254;-64
2022/12/01 05:58:15;;;;;;;30.93;16.27;;;4.00;1.00;;;;;;5028885;28;20257;-64
2022/12/01 06:00:41;;;;;;;34.50;18.70;;;3.80;1.00;;;;;;5028352;28;20506;-64
2022/12/01 06:03:07;;;;;;;27.17;16.87;;;4.00;1.00;;;;;;5029081;28;20168;-64
2022/12/01 06:05:33;;;;;;;29.03;17.53;;;4.00;1.00;;;;;;5028968;28;20465;-64
2022/12/01 06:07:58;;;;;;;31.97;16.37;;;4.10;1.00;;;;;;5028687;28;20218;-64
2022/12/01 06:10:24;;;;;;;27.90;16.97;;;4.20;1.00;;;;;;5027484;28;20172;-64
2022/12/01 06:12:50;;;;;;;31.27;16.80;;;4.40;1.00;;;;;;5029298;28;20210;-63
2022/12/01 06:15:15;;;;;;;30.83;16.73;;;4.50;99.90;;;;;;5028363;28;20163;-64
2022/12/01 06:17:41;;;;;;;27.33;17.17;;;4.60;99.90;;;;;;5026932;28;20229;-64
2022/12/01 06:20:08;;;;;;;28.60;14.80;;;4.60;86.80;;;;;;5022103;28;20179;-64
2022/12/01 06:22:34;;;;;;;29.13;16.67;;;4.60;1.00;;;;;;5019646;28;20176;-64
2022/12/01 06:24:59;;;;;;;30.33;17.97;;;4.60;1.00;;;;;;5023089;28;20445;-65
2022/12/01 06:27:25;;;;;;;33.40;16.60;;;4.60;1.00;;;;;;5022840;28;20518;-65
2022/12/01 06:29:51;;;;;;;32.53;17.23;;;4.70;1.00;;;;;;5025701;28;20182;-65
2022/12/01 06:32:16;;;;;;;29.37;16.70;;;4.70;1.00;;;;;;5022172;28;20669;-65
2022/12/01 06:34:45;;;;;;;26.17;16.70;;;4.60;1.00;;;;;;5024677;28;20593;-65
2022/12/01 06:37:11;;;;;;;32.57;16.57;;;4.70;1.00;;;;;;5021419;28;20207;-65
2022/12/01 06:39:36;;;;;;;33.27;17.10;;;4.60;1.00;;;;;;5018532;28;20438;-65
2022/12/01 06:42:03;;;;;;;27.50;16.43;;;4.60;1.00;;;;;;5026317;28;20419;-65
2022/12/01 06:44:28;;;;;;;65.43;17.80;;;4.70;1.00;;;;;;5025916;28;20791;-65
2022/12/01 06:46:55;;;;;;;47.10;18.87;;;4.80;1.00;;;;;;5025727;28;20552;-64
2022/12/01 06:49:21;;;;;;;28.97;15.97;;;4.90;99.90;;;;;;5029201;28;20187;-64
2022/12/01 06:51:48;;;;;;;32.00;17.07;;;4.60;99.90;;;;;;5029842;28;20476;-64
2022/12/01 06:54:15;;;;;;;27.87;16.17;;;4.60;99.90;;;;;;5030297;28;20174;-64
2022/12/01 06:56:44;;;;;;;28.60;16.37;;;4.40;1.00;;;;;;5030212;28;20432;-64
2022/12/01 06:59:10;;;;;;;26.10;16.73;;;4.40;1.00;;;;;;5029694;28;20437;-64
2022/12/01 07:01:36;;;;;;;29.00;16.30;;;4.40;1.00;;;;;;5029469;28;20449;-66
2022/12/01 07:04:02;;;;;;;32.20;18.93;;;4.60;1.00;;;;;;5030529;28;20465;-66
2022/12/01 07:06:31;;;;;;;37.13;17.40;;;4.70;1.00;;;;;;5030173;28;20926;-66
2022/12/01 07:08:57;;;;;;;31.93;16.60;;;4.70;1.00;;;;;;5030350;28;20181;-65
2022/12/01 07:11:23;;;;;;;27.67;16.33;;;4.70;1.00;;;;;;5029956;28;20544;-66
2022/12/01 07:13:54;;;;;;;27.23;17.67;;;4.60;1.00;;;;;;5030422;28;20172;-66
2022/12/01 07:16:21;;;;;;;29.53;16.97;;;4.70;1.00;;;;;;5030097;28;20633;-64
2022/12/01 07:18:46;;;;;;;32.00;17.77;;;4.40;1.00;;;;;;5040403;28;20417;-64
2022/12/01 07:21:13;;;;;;;34.73;18.17;;;4.50;81.00;;;;;;5037962;28;20422;-64
2022/12/01 07:23:39;;;;;;;30.77;17.87;;;4.60;1.00;;;;;;5029869;28;20188;-65
2022/12/01 07:26:18;;;;;;;29.40;16.73;;;4.70;1.00;;;;;;5028956;28;20445;-64
2022/12/01 07:28:44;;;;;;;26.97;17.20;;;4.60;1.00;;;;;;5029941;28;20176;-64
2022/12/01 07:31:15;;;;;;;30.53;17.67;;;4.70;1.00;;;;;;5029017;28;20492;-64
2022/12/01 07:33:41;;;;;;;25.63;17.40;;;4.70;1.00;;;;;;5029298;28;20778;-64
2022/12/01 07:36:08;;;;;;;32.17;16.63;;;4.70;1.00;;;;;;5029661;28;20520;-64
2022/12/01 07:38:35;;;;;;;30.93;18.17;;;4.70;1.00;;;;;;5019049;28;20442;-65
2022/12/01 07:41:09;;;;;;;27.50;15.50;;;4.70;1.00;;;;;;5029794;28;20437;-64
2022/12/01 07:43:35;;;;;;;25.73;16.47;;;4.40;1.00;;;;;;5029651;28;20411;-64
2022/12/01 07:46:16;;;;;;;27.37;17.17;;;4.20;99.90;;;;;;5030117;28;20453;-64
2022/12/01 07:48:42;;;;;;;27.40;17.63;;;4.20;99.90;;;;;;5029793;28;20483;-64
2022/12/01 07:51:11;;;;;;;25.63;16.50;;;4.10;99.90;;;;;;5029501;28;20446;-64
2022/12/01 07:53:37;;;;;;;28.70;17.57;;;4.10;1.00;;;;;;5027997;28;20498;-64
2022/12/01 07:56:04;;;;;;;23.90;15.70;;;4.30;99.90;;;;;;5031408;28;20399;-64
2022/12/01 07:58:30;;;;;;;27.73;15.77;;;4.40;99.90;;;;;;5026065;28;20446;-65
2022/12/01 08:00:56;;;;;;;26.00;14.63;;;4.50;99.90;;;;;;5008484;28;20913;-65
2022/12/01 08:03:22;;;;;;;24.87;16.07;;;4.40;99.90;;;;;;5011539;28;20485;-66
2022/12/01 08:05:58;;;;;;;27.37;17.50;;;4.20;99.90;;;;;;5011966;28;20172;-64
2022/12/01 08:08:24;;;;;;;26.70;17.77;;;4.40;1.00;;;;;;5011229;28;20260;-65
2022/12/01 08:10:50;;;;;;;22.80;14.53;;;4.50;99.90;;;;;;5010782;28;20511;-64
2022/12/01 08:13:16;;;;;;;29.97;17.37;;;4.40;99.90;;;;;;5011733;28;20412;-64
2022/12/01 08:15:43;;;;;;;24.77;15.87;;;4.40;99.90;;;;;;5011985;28;20406;-64
2022/12/01 08:18:09;;;;;;;27.40;17.50;;;4.40;1.00;;;;;;5011504;28;20469;-65
2022/12/01 08:20:34;;;;;;;25.33;17.00;;;4.60;99.90;;;;;;5010685;28;20412;-65
2022/12/01 08:23:01;;;;;;;28.43;17.57;;;4.30;1.00;;;;;;5011633;28;20768;-65
2022/12/01 08:25:28;;;;;;;31.37;16.83;;;4.30;1.00;;;;;;5011289;28;20250;-65
2022/12/01 08:27:53;;;;;;;26.83;15.33;;;4.20;1.00;;;;;;5011269;28;20879;-64
2022/12/01 08:30:19;;;;;;;27.67;15.93;;;4.00;1.00;;;;;;5011171;28;20502;-65
2022/12/01 08:32:45;;;;;;;27.53;16.60;;;3.90;1.00;;;;;;5016945;28;20195;-64
2022/12/01 08:35:11;;;;;;;27.93;15.60;;;4.00;1.00;;;;;;5029506;28;20267;-65
2022/12/01 08:37:37;;;;;;;28.00;17.43;;;4.10;1.00;;;;;;5031098;28;20230;-65
2022/12/01 08:40:03;;;;;;;27.97;16.33;;;4.10;1.00;;;;;;5030393;28;20437;-65
2022/12/01 08:42:28;;;;;;;34.67;18.07;;;4.30;1.00;;;;;;5030425;28;20280;-65
2022/12/01 08:44:54;;;;;;;29.80;18.27;;;4.40;1.00;;;;;;5030897;28;20415;-65
2022/12/01 08:47:19;;;;;;;34.27;15.93;;;4.30;1.00;;;;;;5030644;28;20203;-65
2022/12/01 08:49:45;;;;;;;32.70;17.27;;;4.20;1.00;;;;;;5030452;28;20168;-65
2022/12/01 08:52:11;;;;;;;32.03;17.63;;;4.40;1.00;;;;;;5029828;28;20204;-65
2022/12/01 08:54:36;;;;;;;33.57;17.30;;;4.20;1.00;;;;;;5029892;28;20206;-65
2022/12/01 08:57:02;;;;;;;24.93;15.90;;;4.30;1.00;;;;;;5030843;28;20521;-65
2022/12/01 08:59:28;;;;;;;26.03;16.70;;;4.40;99.90;;;;;;5030475;28;20164;-65
2022/12/01 09:01:54;;;;;;;27.53;16.43;;;4.40;99.90;;;;;;5028974;28;20199;-65
2022/12/01 09:04:21;;;;;;;31.97;16.37;;;4.50;99.90;;;;;;5030551;28;20301;-65
2022/12/01 09:06:49;;;;;;;31.90;17.30;;;4.70;99.90;;;;;;5030999;28;20234;-66
2022/12/01 09:09:18;;;;;;;32.10;17.20;;;4.60;99.90;;;;;;5029649;28;20781;-64
2022/12/01 09:11:44;;;;;;;26.50;18.07;;;4.80;99.90;;;;;;5029252;28;20453;-65
2022/12/01 09:14:15;;;;;;;25.03;16.57;;;4.70;99.90;;;;;;5029973;28;20492;-65
2022/12/01 09:16:42;;;;;;;32.73;17.73;;;4.70;99.90;;;;;;5030319;28;20500;-64
2022/12/01 09:19:08;;;;;;;30.17;17.73;;;4.70;99.90;;;;;;5029918;28;20401;-65
2022/12/01 09:21:38;;;;;;;27.47;17.73;;;4.60;99.90;;;;;;5029465;28;20410;-65
2022/12/01 09:24:05;;;;;;;40.87;18.80;;;4.70;99.90;;;;;;5030051;28;20426;-65
2022/12/01 09:26:32;;;;;;;29.70;16.87;;;4.50;99.90;;;;;;5030154;28;20445;-65
2022/12/01 09:29:00;;;;;;;33.37;16.47;;;4.60;99.90;;;;;;5030248;28;20868;-65
2022/12/01 09:31:26;;;;;;;29.53;17.70;;;4.60;99.90;;;;;;5029046;28;20464;-66
2022/12/01 09:34:04;;;;;;;31.40;14.77;;;4.60;1.00;;;;;;5030115;28;20465;-65
2022/12/01 09:36:31;;;;;;;36.90;18.50;;;4.70;87.10;;;;;;5030139;28;20414;-66
2022/12/01 09:38:57;;;;;;;25.93;15.80;;;4.90;1.00;;;;;;5029633;28;20410;-62
2022/12/01 09:41:38;;;;;;;27.70;17.77;;;4.80;1.00;;;;;;5030284;28;20424;-65
2022/12/01 09:44:26;;;;;;;28.13;16.30;;;4.60;1.00;;;;;;5030414;28;20505;-65
2022/12/01 09:47:18;;;;;;;36.80;18.80;;;4.70;1.00;;;;;;5030141;28;20454;-65
2022/12/01 09:49:56;;;;;;;30.00;18.10;;;4.90;1.00;;;;;;5030084;28;20497;-64
2022/12/01 09:52:25;;;;;;;31.00;17.97;;;4.70;99.90;;;;;;5030258;28;20454;-64
2022/12/01 09:54:54;;;;;;;45.93;19.53;;;4.90;43.60;;;;;;5028658;28;20406;-64
2022/12/01 09:57:28;;;;;;;37.83;17.67;;;5.00;1.00;;;;;;5030047;28;20422;-64
2022/12/01 09:59:54;;;;;;;28.10;17.63;;;5.10;1.00;;;;;;5029789;28;20481;-64
2022/12/01 10:02:35;;;;;;;29.33;16.87;;;5.00;1.00;;;;;;5029542;28;20968;-64
2022/12/01 10:05:10;;;;;;;30.43;18.73;;;4.90;1.00;;;;;;5029682;28;20410;-64
2022/12/01 10:07:43;;;;;;;28.40;17.33;;;4.90;1.00;;;;;;5029829;28;21122;-64
2022/12/01 10:10:17;;;;;;;32.70;18.40;;;5.00;1.00;;;;;;5029587;28;20390;-64
2022/12/01 10:12:46;;;;;;;37.90;19.77;;;5.10;1.00;;;;;;5029579;28;21219;-64
2022/12/01 10:15:11;;;;;;;65.17;21.43;;;5.10;99.90;;;;;;5029296;28;20410;-64
2022/12/01 10:17:42;;;;;;;60.73;21.57;;;4.90;1.00;;;;;;5029875;28;20427;-64
2022/12/01 10:21:05;;;;;;;43.50;20.00;;;5.00;1.00;;;;;;5029814;28;20171;-64
2022/12/01 10:23:42;;;;;;;43.27;18.20;;;5.10;1.00;;;;;;4989353;28;20424;-65
2022/12/01 10:26:37;;;;;;;31.50;18.07;;;5.00;99.90;;;;;;4992127;28;20400;-65
2022/12/01 10:29:22;;;;;;;32.43;17.13;;;4.90;1.00;;;;;;4957651;28;20434;-65
2022/12/01 10:31:57;;;;;;;26.03;17.80;;;4.90;1.00;;;;;;4992000;28;20479;-65
2022/12/01 10:34:36;;;;;;;27.50;16.83;;;4.90;1.00;;;;;;4991999;28;20996;-65
2022/12/01 10:37:02;;;;;;;28.77;16.37;;;5.00;1.00;;;;;;4992431;28;20559;-65
2022/12/01 10:39:33;;;;;;;38.57;17.53;;;5.10;1.00;;;;;;4991631;28;20412;-65
2022/12/01 10:42:15;;;;;;;34.63;17.83;;;5.20;1.00;;;;;;4992116;28;20507;-64
2022/12/01 10:44:43;;;;;;;31.13;16.70;;;5.30;1.00;;;;;;4992044;28;20458;-64
2022/12/01 10:47:19;;;;;;;27.83;18.27;;;5.30;99.90;;;;;;4992259;28;20456;-64
2022/12/01 10:49:46;;;;;;;26.97;17.47;;;5.30;1.00;;;;;;4992189;28;20388;-64
2022/12/01 10:52:37;;;;;;;30.97;17.93;;;5.30;99.90;;;;;;4991957;28;20543;-64
2022/12/01 10:55:28;;;;;;;31.90;17.87;;;5.20;1.00;;;;;;5031315;28;20533;-65
2022/12/01 10:57:57;;;;;;;28.03;16.77;;;5.20;99.90;;;;;;5030189;28;20861;-65
2022/12/01 11:00:36;;;;;;;34.87;16.90;;;5.20;1.00;;;;;;5033287;28;20421;-65
2022/12/01 11:03:02;;;;;;;26.40;16.93;;;5.20;1.90;;;;;;5034446;28;20410;-65
2022/12/01 11:05:32;;;;;;;32.80;18.57;;;5.20;99.90;;;;;;5033726;28;20480;-64
2022/12/01 11:07:58;;;;;;;29.27;17.13;;;5.20;1.00;;;;;;5033316;28;20419;-65
2022/12/01 11:10:36;;;;;;;31.43;18.33;;;5.30;1.00;;;;;;5033031;28;20421;-65
2022/12/01 11:13:27;;;;;;;35.13;19.13;;;5.30;1.00;;;;;;5033475;28;20182;-65
2022/12/01 11:15:58;;;;;;;34.03;20.20;;;5.40;1.00;;;;;;5033001;28;20484;-65
2022/12/01 11:18:27;;;;;;;31.93;17.30;;;5.20;1.00;;;;;;5033091;28;20807;-65
2022/12/01 11:21:26;;;;;;;30.43;18.57;;;5.30;1.00;;;;;;5033041;28;20513;-64
2022/12/01 11:23:54;;;;;;;30.23;17.53;;;5.10;99.90;;;;;;5021134;28;20426;-65
2022/12/01 11:26:33;;;;;;;29.00;17.60;;;5.20;1.00;;;;;;5033777;28;20497;-65
2022/12/01 11:28:58;;;;;;;28.13;17.33;;;5.10;1.00;;;;;;5033637;28;20458;-65
2022/12/01 11:31:38;;;;;;;33.90;19.83;;;5.00;1.00;;;;;;5034366;28;20974;-65
2022/12/01 11:34:04;;;;;;;35.20;19.17;;;5.00;99.90;;;;;;5034360;28;20172;-66
2022/12/01 11:36:44;;;;;;;27.23;18.37;;;5.10;99.90;;;;;;5035437;28;20549;-66
2022/12/01 11:39:26;;;;;;;27.60;18.23;;;4.90;99.90;;;;;;5034259;28;20379;-66
2022/12/01 11:42:01;;;;;;;31.70;18.37;;;5.10;1.00;;;;;;5034935;28;20941;-66
2022/12/01 11:44:28;;;;;;;34.13;18.20;;;5.30;99.90;;;;;;5034287;28;20416;-66
2022/12/01 11:46:53;;;;;;;35.70;18.40;;;5.20;67.50;;;;;;5033761;28;20454;-65
2022/12/01 11:49:23;;;;;;;32.80;18.20;;;5.40;1.00;;;;;;5033333;28;20413;-65
2022/12/01 11:51:48;;;;;;;34.67;19.87;;;5.40;1.00;;;;;;5032628;28;20445;-66
2022/12/01 11:54:25;;;;;;;30.80;17.87;;;5.40;99.90;;;;;;5032657;28;20544;-65
2022/12/01 11:56:53;;;;;;;30.07;19.27;;;5.30;1.00;;;;;;5030337;28;20241;-65
2022/12/01 11:59:28;;;;;;;28.07;18.77;;;5.30;1.00;;;;;;5031726;28;20430;-65
2022/12/01 12:02:07;;;;;;;28.97;18.13;;;5.20;1.00;;;;;;5031737;28;20561;-65
2022/12/01 12:04:57;;;;;;;25.73;17.80;;;5.10;1.00;;;;;;5031883;28;20406;-65
2022/12/01 12:08:03;;;;;;;26.40;17.97;;;5.20;56.30;;;;;;5031766;28;20481;-66
2022/12/01 12:10:52;;;;;;;34.60;17.80;;;5.50;1.00;;;;;;5031640;28;20441;-66
2022/12/01 12:13:33;;;;;;;29.90;17.93;;;5.60;99.90;;;;;;5007757;28;20521;-66
2022/12/01 12:16:20;;;;;;;47.60;26.10;;;5.60;1.00;;;;;;5032134;28;20436;-64
2022/12/01 12:19:15;;;;;;;50.40;25.10;;;5.40;57.40;;;;;;5032175;28;21065;-64
2022/12/01 12:22:02;;;;;;;47.33;20.23;;;5.40;1.00;;;;;;5027892;28;20475;-65
2022/12/01 12:24:49;;;;;;;52.40;26.80;;;5.50;1.00;;;;;;5029224;28;20938;-64
2022/12/01 12:27:24;;;;;;;35.67;21.80;;;5.40;1.00;;;;;;5023188;28;20822;-65
2022/12/01 12:30:06;;;;;;;33.40;21.00;;;5.30;1.00;;;;;;5029395;28;20942;-65
2022/12/01 12:32:51;;;;;;;36.23;18.80;;;5.20;1.00;;;;;;5029292;28;20556;-65
2022/12/01 12:35:28;;;;;;;27.43;15.37;;;5.30;1.00;;;;;;5021927;28;20426;-66
2022/12/01 12:38:28;;;;;;;28.17;17.43;;;5.00;99.90;;;;;;5025646;28;20886;-66
2022/12/01 12:41:17;;;;;;;29.03;16.83;;;4.90;1.00;;;;;;5019760;28;20503;-66
2022/12/01 12:44:09;;;;;;;48.33;20.20;;;4.90;99.90;;;;;;5030432;28;20387;-66
2022/12/01 12:46:37;;;;;;;47.73;20.50;;;5.20;1.00;;;;;;5016416;28;20418;-66
2022/12/01 12:49:15;;;;;;;49.87;19.70;;;5.30;1.00;;;;;;5030299;28;20403;-66
2022/12/01 12:51:53;;;;;;;33.33;17.80;;;5.40;99.90;;;;;;5030216;28;20496;-66
2022/12/01 12:54:45;;;;;;;32.87;17.73;;;5.20;99.90;;;;;;5030343;28;20403;-65
2022/12/01 12:57:34;;;;;;;28.80;18.90;;;5.30;1.00;;;;;;5030554;28;20422;-66
2022/12/01 13:00:14;;;;;;;23.50;17.07;;;5.20;99.90;;;;;;5030382;28;20410;-66
2022/12/01 13:02:48;;;;;;;25.63;16.97;;;5.20;99.90;;;;;;5030459;28;20403;-66
2022/12/01 13:05:48;;;;;;;29.67;18.73;;;5.20;99.90;;;;;;5035517;28;20853;-66
2022/12/01 13:08:30;;;;;;;27.30;16.83;;;5.30;99.90;;;;;;5029812;28;20444;-65
2022/12/01 13:11:12;;;;;;;30.63;17.90;;;5.30;99.90;;;;;;5029981;28;20433;-65